Time;durP1;ratioP1;P1;durP2;ratioP2;P2;SDS_P1;SDS_P2;PMS_P1;PMS_P2;Temp;Humidity;BMP_temperature;BMP_pressure;BME280_temperature;BME280_humidity;BME280_pressure;Samples;Min_cycle;Max_cycle;Signal;HPM_P1;HPM_P2
2022/10/02 00:01:08;;;;;;;0.65;0.63;;;20.70;57.70;;;;;;6294778;28;20070;-68
2022/10/02 00:04:15;;;;;;;1.35;0.77;;;20.70;57.70;;;;;;6294594;28;20501;-68
2022/10/02 00:07:18;;;;;;;0.98;0.70;;;20.70;57.70;;;;;;6294977;28;20066;-68
2022/10/02 00:10:45;;;;;;;0.73;0.52;;;20.70;57.70;;;;;;6293535;28;20111;-68
2022/10/02 00:13:50;;;;;;;0.43;0.30;;;20.70;57.70;;;;;;6294502;28;20501;-69
2022/10/02 00:16:56;;;;;;;1.00;0.60;;;20.70;58.40;;;;;;6293136;28;20030;-69
2022/10/02 00:19:57;;;;;;;0.60;0.50;;;20.70;57.70;;;;;;6293059;28;20032;-68
2022/10/02 00:23:10;;;;;;;2.15;0.73;;;20.70;57.70;;;;;;6294556;28;20401;-68
2022/10/02 00:26:47;;;;;;;0.93;0.52;;;20.70;57.70;;;;;;6293631;28;20457;-68
2022/10/02 00:29:51;;;;;;;1.75;0.65;;;20.70;57.70;;;;;;6293022;28;20124;-68
2022/10/02 00:33:06;;;;;;;0.30;0.30;;;20.70;57.70;;;;;;6294060;28;20043;-68
2022/10/02 00:36:30;;;;;;;1.03;0.70;;;20.70;57.70;;;;;;6293853;28;20031;-68
2022/10/02 00:39:39;;;;;;;1.27;0.75;;;20.70;57.70;;;;;;6294326;28;20473;-68
2022/10/02 00:42:57;;;;;;;1.13;0.60;;;20.70;57.70;;;;;;6293846;28;20528;-68
2022/10/02 00:46:15;;;;;;;0.63;0.60;;;20.70;57.70;;;;;;6293948;28;20028;-68
2022/10/02 00:49:29;;;;;;;0.95;0.68;;;20.70;57.70;;;;;;6293464;28;20098;-68
2022/10/02 00:53:01;;;;;;;0.98;0.55;;;20.70;57.70;;;;;;6292019;28;20389;-68
2022/10/02 00:56:17;;;;;;;0.98;0.60;;;20.70;58.30;;;;;;6293320;28;20094;-68
2022/10/02 00:59:21;;;;;;;0.85;0.60;;;20.70;57.70;;;;;;6293390;28;20020;-68
2022/10/02 01:02:30;;;;;;;0.68;0.50;;;20.70;57.70;;;;;;6293801;28;20096;-68
2022/10/02 01:05:32;;;;;;;0.93;0.50;;;20.70;57.70;;;;;;6292553;28;20022;-68
2022/10/02 01:08:35;;;;;;;0.73;0.40;;;20.70;57.70;;;;;;6293248;28;20058;-68
2022/10/02 01:11:37;;;;;;;1.02;0.80;;;20.70;57.70;;;;;;6293361;28;20628;-68
2022/10/02 01:14:40;;;;;;;1.23;0.57;;;20.70;57.70;;;;;;6293159;28;20086;-68
2022/10/02 01:17:41;;;;;;;0.95;0.60;;;20.70;57.80;;;;;;6292924;28;20056;-68
2022/10/02 01:20:51;;;;;;;1.05;0.68;;;20.70;57.70;;;;;;6293177;28;20060;-69
2022/10/02 01:23:55;;;;;;;1.10;0.60;;;20.70;57.70;;;;;;6292987;28;20031;-68
2022/10/02 01:26:55;;;;;;;0.47;0.40;;;20.70;57.70;;;;;;6292737;28;20059;-68
2022/10/02 01:30:00;;;;;;;2.08;0.68;;;20.70;57.80;;;;;;6292879;28;20028;-68
2022/10/02 01:33:02;;;;;;;0.88;0.50;;;20.70;57.70;;;;;;6292784;28;20028;-68
2022/10/02 01:36:03;;;;;;;0.63;0.47;;;20.70;57.80;;;;;;6292606;28;20024;-67
2022/10/02 01:39:04;;;;;;;0.77;0.55;;;20.70;57.70;;;;;;6292552;28;20024;-68
2022/10/02 01:42:05;;;;;;;1.17;0.65;;;20.70;57.70;;;;;;6292618;28;20017;-68
2022/10/02 01:45:08;;;;;;;0.70;0.70;;;20.70;57.80;;;;;;6292553;28;20028;-68
2022/10/02 01:48:34;;;;;;;0.98;0.60;;;20.70;57.80;;;;;;6292393;28;20040;-68
2022/10/02 01:52:03;;;;;;;5.05;0.52;;;20.70;57.80;;;;;;6291235;28;20045;-68
2022/10/02 01:55:21;;;;;;;0.52;0.50;;;20.70;57.80;;;;;;6292416;28;20016;-68
2022/10/02 01:58:33;;;;;;;1.05;0.55;;;20.70;57.80;;;;;;6292409;28;20016;-68
2022/10/02 02:02:32;;;;;;;1.15;0.70;;;20.70;57.80;;;;;;6292463;28;20464;-68
2022/10/02 02:05:45;;;;;;;1.00;0.60;;;20.70;57.70;;;;;;6258066;28;20047;-67
2022/10/02 02:09:19;;;;;;;1.55;0.70;;;20.70;57.70;;;;;;6292326;28;20382;-68
2022/10/02 02:12:42;;;;;;;0.63;0.55;;;20.70;57.80;;;;;;6290173;28;20090;-68
2022/10/02 02:15:55;;;;;;;1.35;0.70;;;20.70;57.70;;;;;;6292744;28;20437;-67
2022/10/02 02:19:12;;;;;;;2.35;0.57;;;20.70;57.80;;;;;;6296049;28;20025;-68
2022/10/02 02:22:29;;;;;;;1.45;0.60;;;20.70;57.70;;;;;;6296832;28;20028;-68
2022/10/02 02:25:34;;;;;;;0.65;0.50;;;20.60;57.60;;;;;;6295106;28;20035;-67
2022/10/02 02:28:36;;;;;;;1.02;0.60;;;20.60;57.60;;;;;;6295231;28;20028;-68
2022/10/02 02:31:48;;;;;;;1.52;0.70;;;20.70;57.70;;;;;;6296946;28;20132;-68
2022/10/02 02:34:55;;;;;;;0.30;0.30;;;20.60;57.70;;;;;;6296689;28;20400;-68
2022/10/02 02:38:03;;;;;;;1.10;0.50;;;20.70;57.80;;;;;;6296815;28;20382;-68
2022/10/02 02:41:10;;;;;;;0.60;0.60;;;20.60;57.70;;;;;;6296722;28;20012;-68
2022/10/02 02:44:23;;;;;;;0.50;0.43;;;20.60;57.70;;;;;;6296439;28;20133;-68
2022/10/02 02:47:30;;;;;;;0.80;0.50;;;20.60;57.60;;;;;;6296663;28;20041;-68
2022/10/02 02:50:34;;;;;;;0.93;0.50;;;20.60;57.80;;;;;;6295191;28;20020;-69
2022/10/02 02:53:42;;;;;;;0.68;0.50;;;20.60;57.70;;;;;;6296354;28;20027;-67
2022/10/02 02:56:44;;;;;;;0.93;0.50;;;20.60;57.60;;;;;;6294461;28;20120;-67
2022/10/02 02:59:49;;;;;;;0.75;0.50;;;20.60;57.70;;;;;;6296212;28;20028;-68
2022/10/02 03:02:53;;;;;;;1.55;0.60;;;20.60;57.60;;;;;;6294735;28;20123;-68
2022/10/02 03:06:17;;;;;;;0.73;0.50;;;20.70;57.70;;;;;;6296215;28;20033;-68
2022/10/02 03:09:20;;;;;;;0.70;0.50;;;20.60;57.60;;;;;;6295951;28;20229;-68
2022/10/02 03:12:31;;;;;;;1.63;0.50;;;20.60;57.70;;;;;;6295725;28;20482;-68
2022/10/02 03:16:05;;;;;;;1.08;0.50;;;20.60;57.70;;;;;;6295479;28;20086;-68
2022/10/02 03:19:21;;;;;;;1.67;0.63;;;20.60;57.60;;;;;;6270948;28;20086;-68
2022/10/02 03:22:40;;;;;;;1.23;0.55;;;20.60;57.70;;;;;;6293208;28;20118;-68
2022/10/02 03:25:53;;;;;;;0.85;0.50;;;20.60;57.70;;;;;;6295304;28;20024;-68
2022/10/02 03:28:58;;;;;;;0.60;0.55;;;20.60;57.60;;;;;;6293684;28;20074;-67
2022/10/02 03:32:00;;;;;;;0.75;0.50;;;20.60;58.30;;;;;;6295406;28;20035;-68
2022/10/02 03:35:03;;;;;;;0.43;0.40;;;20.60;57.60;;;;;;6294048;28;20158;-68
2022/10/02 03:38:08;;;;;;;1.02;0.60;;;20.60;57.60;;;;;;6295115;28;20016;-68
2022/10/02 03:41:09;;;;;;;1.48;0.70;;;20.60;57.60;;;;;;6295258;28;20035;-68
2022/10/02 03:44:09;;;;;;;1.48;0.73;;;20.60;57.70;;;;;;6293449;28;20025;-68
2022/10/02 03:47:10;;;;;;;1.05;0.40;;;20.60;57.60;;;;;;6295207;28;20024;-68
2022/10/02 03:50:12;;;;;;;1.42;0.60;;;20.60;57.70;;;;;;6294457;28;20028;-68
2022/10/02 03:53:23;;;;;;;0.65;0.50;;;20.60;57.70;;;;;;6295078;28;20052;-68
2022/10/02 03:56:39;;;;;;;1.00;0.57;;;20.60;57.70;;;;;;6294745;28;20027;-68
2022/10/02 03:59:50;;;;;;;1.13;0.60;;;20.60;57.70;;;;;;6294488;28;20640;-68
2022/10/02 04:03:09;;;;;;;1.38;0.70;;;20.60;57.60;;;;;;6294440;28;20036;-68
2022/10/02 04:06:32;;;;;;;1.88;0.45;;;20.60;57.60;;;;;;6294637;28;20024;-68
2022/10/02 04:09:35;;;;;;;1.15;0.50;;;20.60;57.70;;;;;;6294889;28;20504;-68
2022/10/02 04:12:48;;;;;;;0.88;0.50;;;20.60;57.80;;;;;;6294565;28;20029;-68
2022/10/02 04:16:09;;;;;;;0.55;0.40;;;20.60;57.70;;;;;;6293042;28;20016;-68
2022/10/02 04:19:24;;;;;;;1.30;0.52;;;20.60;57.70;;;;;;6268275;28;20021;-68
2022/10/02 04:22:52;;;;;;;1.08;0.50;;;20.60;57.60;;;;;;6283859;28;20032;-68
2022/10/02 04:26:00;;;;;;;0.63;0.47;;;20.60;57.60;;;;;;6292132;28;20537;-67
2022/10/02 04:29:11;;;;;;;1.25;0.60;;;20.60;58.30;;;;;;6294406;28;20024;-68
2022/10/02 04:32:16;;;;;;;0.70;0.45;;;20.60;57.70;;;;;;6293862;28;20017;-68
2022/10/02 04:35:31;;;;;;;0.83;0.40;;;20.60;57.70;;;;;;6292572;28;20068;-67
2022/10/02 04:38:44;;;;;;;0.70;0.60;;;20.60;57.60;;;;;;6294040;28;20025;-68
2022/10/02 04:41:48;;;;;;;1.52;0.65;;;20.60;57.70;;;;;;6293475;28;20075;-68
2022/10/02 04:45:15;;;;;;;1.30;0.50;;;20.60;57.60;;;;;;6293485;28;20024;-68
2022/10/02 04:48:40;;;;;;;1.35;0.60;;;20.60;57.60;;;;;;6293722;28;20511;-68
2022/10/02 04:51:55;;;;;;;1.23;0.55;;;20.60;57.70;;;;;;6293579;28;20035;-68
2022/10/02 04:55:33;;;;;;;0.40;0.40;;;20.60;57.80;;;;;;6291788;28;20623;-68
2022/10/02 04:58:52;;;;;;;1.67;0.50;;;20.60;57.70;;;;;;6293370;28;20036;-68
2022/10/02 05:02:01;;;;;;;1.05;0.60;;;20.60;57.70;;;;;;6291942;28;20016;-68
2022/10/02 05:05:12;;;;;;;0.57;0.50;;;20.60;57.70;;;;;;6293432;28;20111;-68
2022/10/02 05:08:31;;;;;;;2.17;0.60;;;20.60;57.70;;;;;;6293072;28;20047;-68
2022/10/02 05:12:18;;;;;;;1.08;0.60;;;20.60;57.80;;;;;;6292892;28;20679;-68
2022/10/02 05:15:41;;;;;;;0.90;0.50;;;20.60;57.70;;;;;;6290224;28;20036;-68
2022/10/02 05:18:51;;;;;;;0.60;0.50;;;20.60;57.70;;;;;;6292814;28;20056;-68
2022/10/02 05:22:12;;;;;;;0.93;0.50;;;20.60;57.60;;;;;;6292743;28;20053;-67
2022/10/02 05:25:35;;;;;;;1.33;0.50;;;20.60;57.70;;;;;;6292805;28;20462;-68
2022/10/02 05:28:52;;;;;;;0.60;0.50;;;20.60;57.60;;;;;;6292785;28;20405;-68
2022/10/02 05:32:26;;;;;;;0.90;0.55;;;20.60;57.60;;;;;;6292805;28;20491;-68
2022/10/02 05:35:39;;;;;;;1.10;0.52;;;20.60;57.60;;;;;;6291491;28;20039;-69
2022/10/02 05:38:58;;;;;;;0.82;0.50;;;20.60;57.70;;;;;;6292147;28;20032;-68
2022/10/02 05:42:21;;;;;;;1.20;0.50;;;20.60;57.80;;;;;;6292738;28;20025;-68
2022/10/02 05:45:39;;;;;;;0.43;0.35;;;20.60;57.70;;;;;;6288027;28;20017;-68
2022/10/02 05:48:52;;;;;;;0.85;0.52;;;20.60;57.60;;;;;;6292235;28;20045;-68
2022/10/02 05:52:24;;;;;;;0.70;0.43;;;20.60;58.40;;;;;;6292349;28;20041;-68
2022/10/02 05:55:33;;;;;;;0.80;0.52;;;20.60;57.60;;;;;;6266077;28;20567;-68
2022/10/02 05:59:08;;;;;;;1.45;0.43;;;20.60;57.70;;;;;;6267373;28;20412;-68
2022/10/02 06:02:34;;;;;;;1.48;0.60;;;20.60;57.70;;;;;;6266718;28;20045;-68
2022/10/02 06:05:54;;;;;;;0.30;0.30;;;20.60;57.60;;;;;;6266857;28;20037;-68
2022/10/02 06:09:17;;;;;;;0.90;0.50;;;20.60;57.70;;;;;;6279308;28;20574;-67
2022/10/02 06:12:29;;;;;;;0.88;0.50;;;20.60;57.60;;;;;;6292221;28;20039;-68
2022/10/02 06:15:50;;;;;;;0.63;0.47;;;20.60;57.70;;;;;;6291779;28;20099;-68
2022/10/02 06:18:58;;;;;;;1.15;0.63;;;20.60;57.60;;;;;;6290482;28;20074;-67
2022/10/02 06:22:12;;;;;;;1.40;0.40;;;20.60;57.60;;;;;;6291902;28;20043;-68
2022/10/02 06:25:26;;;;;;;0.85;0.55;;;20.60;57.60;;;;;;6291739;28;20119;-68
2022/10/02 06:28:39;;;;;;;1.13;0.43;;;20.60;57.60;;;;;;6290258;28;20063;-67
2022/10/02 06:31:50;;;;;;;1.15;0.30;;;20.60;57.80;;;;;;6292381;28;20024;-68
2022/10/02 06:34:51;;;;;;;1.73;0.60;;;20.60;57.60;;;;;;6291770;28;20033;-68
2022/10/02 06:38:19;;;;;;;1.23;0.60;;;20.60;57.70;;;;;;6291965;28;20688;-68
2022/10/02 06:42:04;;;;;;;0.85;0.55;;;20.60;57.70;;;;;;6290584;28;20386;-68
2022/10/02 06:45:41;;;;;;;2.22;0.70;;;20.60;57.60;;;;;;6283168;28;20104;-68
2022/10/02 06:49:10;;;;;;;1.67;0.65;;;20.60;57.60;;;;;;6272159;28;20044;-67
2022/10/02 06:52:19;;;;;;;2.03;0.57;;;20.60;57.60;;;;;;6291728;28;20108;-68
2022/10/02 06:55:34;;;;;;;1.00;0.50;;;20.60;57.70;;;;;;6291291;28;20056;-68
2022/10/02 06:58:44;;;;;;;0.65;0.40;;;20.60;57.60;;;;;;6291500;28;20474;-67
2022/10/02 07:02:16;;;;;;;2.22;0.68;;;20.60;57.70;;;;;;6291682;28;20052;-68
2022/10/02 07:05:35;;;;;;;1.33;0.57;;;20.60;57.60;;;;;;6296293;28;20021;-68
2022/10/02 07:08:57;;;;;;;1.42;0.45;;;20.60;57.60;;;;;;6296063;28;20078;-68
2022/10/02 07:12:23;;;;;;;1.27;0.50;;;20.60;57.60;;;;;;6294680;28;20432;-68
2022/10/02 07:15:27;;;;;;;1.77;0.50;;;20.60;57.70;;;;;;6295800;28;20044;-68
2022/10/02 07:18:48;;;;;;;1.60;0.50;;;20.60;57.70;;;;;;6295745;28;20052;-68
2022/10/02 07:22:00;;;;;;;2.00;0.70;;;20.60;57.60;;;;;;6271199;28;20029;-68
2022/10/02 07:25:38;;;;;;;0.65;0.40;;;20.60;57.70;;;;;;6280515;28;20028;-68
2022/10/02 07:29:04;;;;;;;1.25;0.63;;;20.60;57.60;;;;;;6295237;28;20032;-68
2022/10/02 07:32:22;;;;;;;;;;;20.60;57.60;;;;;;6269819;28;20028;-68
2022/10/02 07:35:51;;;;;;;1.42;0.60;;;20.60;57.60;;;;;;6283013;28;19909;-68
2022/10/02 07:39:21;;;;;;;0.40;0.40;;;20.60;57.70;;;;;;6295524;28;20025;-68
2022/10/02 07:43:02;;;;;;;0.80;0.50;;;20.60;57.70;;;;;;6270631;28;20025;-68
2022/10/02 07:46:28;;;;;;;0.60;0.57;;;20.60;57.70;;;;;;6286099;28;20040;-68
2022/10/02 07:49:53;;;;;;;1.55;0.60;;;20.60;57.70;;;;;;6295036;28;20044;-68
2022/10/02 07:53:03;;;;;;;0.68;0.57;;;20.60;57.70;;;;;;6294733;28;20052;-68
2022/10/02 07:56:08;;;;;;;1.90;0.52;;;20.60;57.70;;;;;;6295051;28;20025;-68
2022/10/02 07:59:14;;;;;;;0.95;0.60;;;20.60;57.70;;;;;;6295092;28;20427;-68
2022/10/02 08:02:29;;;;;;;2.08;0.60;;;20.60;57.60;;;;;;6294974;28;20056;-68
2022/10/02 08:05:39;;;;;;;1.15;0.50;;;20.60;57.60;;;;;;6281892;28;20089;-66
2022/10/02 08:08:51;;;;;;;1.73;0.57;;;20.60;57.70;;;;;;6283039;28;20025;-66
2022/10/02 08:12:06;;;;;;;0.88;0.57;;;20.60;57.70;;;;;;6293118;28;20025;-67
2022/10/02 08:15:15;;;;;;;7.90;0.80;;;20.60;58.30;;;;;;6291458;28;20020;-67
2022/10/02 08:18:26;;;;;;;6.22;1.05;;;20.60;58.00;;;;;;6292123;28;20028;-67
2022/10/02 08:21:34;;;;;;;4.95;1.45;;;20.60;57.30;;;;;;6292512;28;20050;-67
2022/10/02 08:24:56;;;;;;;6.45;1.55;;;20.60;57.20;;;;;;6296515;28;20020;-68
2022/10/02 08:28:15;;;;;;;14.15;1.60;;;20.60;57.20;;;;;;6287473;28;20036;-71
2022/10/02 08:31:16;;;;;;;5.68;1.30;;;20.70;57.30;;;;;;6318108;28;20027;-69
2022/10/02 08:34:19;;;;;;;7.93;1.58;;;20.70;57.40;;;;;;6317941;28;20082;-69
2022/10/02 08:37:23;;;;;;;9.43;1.67;;;20.80;57.40;;;;;;6313930;28;20096;-68
2022/10/02 08:41:30;;;;;;;12.02;1.50;;;20.80;57.20;;;;;;6291470;28;20024;-66
2022/10/02 08:44:57;;;;;;;6.13;1.33;;;20.90;57.10;;;;;;6290180;28;20018;-68
2022/10/02 08:48:14;;;;;;;7.57;1.15;;;20.90;57.10;;;;;;6253128;28;20146;-69
2022/10/02 08:51:24;;;;;;;6.88;2.03;;;20.90;57.60;;;;;;6294003;28;20089;-67
2022/10/02 08:54:53;;;;;;;6.65;1.27;;;20.90;57.80;;;;;;6292661;28;20032;-66
2022/10/02 08:58:09;;;;;;;12.95;1.73;;;20.90;58.40;;;;;;6290813;28;20029;-68
2022/10/02 09:01:43;;;;;;;8.98;1.23;;;20.90;57.50;;;;;;6293678;28;20070;-68
2022/10/02 09:05:02;;;;;;;5.85;1.33;;;20.80;57.70;;;;;;6292660;28;20028;-68
2022/10/02 09:08:25;;;;;;;8.07;1.02;;;20.80;57.60;;;;;;6291746;28;20410;-66
2022/10/02 09:11:37;;;;;;;5.75;0.90;;;20.80;57.60;;;;;;6283430;28;20032;-66
2022/10/02 09:15:17;;;;;;;3.00;0.95;;;20.80;58.10;;;;;;6292596;28;20530;-70
2022/10/02 09:18:37;;;;;;;8.48;1.02;;;20.90;58.10;;;;;;6292618;28;20028;-69
2022/10/02 09:21:54;;;;;;;3.55;0.95;;;21.00;57.90;;;;;;6293830;28;20112;-68
2022/10/02 09:25:37;;;;;;;3.25;1.08;;;21.00;57.90;;;;;;6293314;28;20395;-68
2022/10/02 09:29:08;;;;;;;5.88;1.00;;;20.90;57.60;;;;;;6279977;28;20076;-69
2022/10/02 09:32:42;;;;;;;2.97;1.00;;;21.00;57.50;;;;;;6291211;28;20036;-68
2022/10/02 09:36:23;;;;;;;7.80;1.35;;;21.00;57.50;;;;;;6312563;28;20057;-69
2022/10/02 09:39:51;;;;;;;4.00;0.95;;;21.00;57.50;;;;;;6292906;28;20025;-69
2022/10/02 09:43:23;;;;;;;5.68;1.17;;;20.90;57.30;;;;;;6291701;28;20021;-67
2022/10/02 09:47:20;;;;;;;4.60;1.00;;;20.90;57.40;;;;;;6292826;28;20034;-68
2022/10/02 09:50:42;;;;;;;3.50;1.35;;;20.90;57.50;;;;;;6289589;28;20538;-69
2022/10/02 09:53:46;;;;;;;2.95;0.93;;;20.90;57.50;;;;;;6273100;28;20048;-69
2022/10/02 09:57:11;;;;;;;2.22;0.85;;;20.90;57.50;;;;;;6292686;28;20025;-68
2022/10/02 10:00:21;;;;;;;;;;;20.90;57.50;;;;;;6293552;28;20048;-68
2022/10/02 10:04:07;;;;;;;3.05;1.00;;;20.90;57.50;;;;;;6292754;28;19905;-68
2022/10/02 10:07:32;;;;;;;1.53;0.77;;;20.90;57.50;;;;;;6266358;28;20029;-68
2022/10/02 10:11:04;;;;;;;4.15;0.95;;;20.90;57.60;;;;;;6267879;28;20347;-68
2022/10/02 10:14:08;;;;;;;2.42;0.88;;;20.90;57.60;;;;;;6282708;28;20114;-68
2022/10/02 10:17:12;;;;;;;2.88;0.95;;;20.90;57.60;;;;;;6292584;28;20016;-69
2022/10/02 10:21:00;;;;;;;2.75;1.10;;;20.90;57.60;;;;;;6292586;28;20017;-68
2022/10/02 10:24:28;;;;;;;3.72;1.10;;;20.90;57.60;;;;;;6292619;28;20675;-69
2022/10/02 10:27:57;;;;;;;1.73;0.98;;;20.90;57.60;;;;;;6290661;28;20030;-68
2022/10/02 10:31:45;;;;;;;2.85;0.95;;;20.90;57.60;;;;;;6292370;28;20477;-66
2022/10/02 10:34:54;;;;;;;8.63;1.23;;;20.90;57.60;;;;;;6292384;28;20031;-68
2022/10/02 10:38:31;;;;;;;2.80;0.73;;;21.00;57.40;;;;;;6292982;28;20397;-67
2022/10/02 10:41:56;;;;;;;5.05;1.23;;;21.10;57.30;;;;;;6297442;28;20021;-66
2022/10/02 10:44:58;;;;;;;5.00;0.73;;;21.10;57.70;;;;;;6295820;28;20025;-67
2022/10/02 10:48:19;;;;;;;3.08;1.25;;;21.10;57.50;;;;;;6296539;28;20048;-68
2022/10/02 10:51:29;;;;;;;2.15;0.98;;;21.10;57.50;;;;;;6296791;28;20017;-67
2022/10/02 10:55:12;;;;;;;2.33;0.90;;;21.00;57.50;;;;;;6296746;28;20020;-67
2022/10/02 10:58:34;;;;;;;3.67;0.77;;;21.00;57.40;;;;;;6296427;28;20075;-68
2022/10/02 11:01:44;;;;;;;2.00;1.00;;;21.00;57.40;;;;;;6294388;28;20060;-68
2022/10/02 11:05:14;;;;;;;1.10;0.63;;;21.00;57.40;;;;;;6295099;28;20459;-68
2022/10/02 11:08:23;;;;;;;2.75;0.88;;;21.00;57.50;;;;;;6296210;28;20112;-68
2022/10/02 11:11:47;;;;;;;2.47;0.82;;;21.00;57.40;;;;;;6296577;28;20024;-68
2022/10/02 11:15:11;;;;;;;1.85;0.68;;;21.00;57.40;;;;;;6296133;28;20440;-66
2022/10/02 11:18:37;;;;;;;2.35;0.80;;;21.00;57.40;;;;;;6295959;28;20131;-67
2022/10/02 11:21:44;;;;;;;;;;;21.00;57.40;;;;;;6294924;28;20031;-68
2022/10/02 11:25:11;;;;;;;3.65;0.98;;;21.00;57.40;;;;;;6296105;28;19940;-68
2022/10/02 11:28:45;;;;;;;2.03;0.80;;;21.10;57.50;;;;;;6296498;28;20082;-68
2022/10/02 11:32:05;;;;;;;1.92;0.77;;;21.10;57.50;;;;;;6296306;28;20032;-67
2022/10/02 11:35:18;;;;;;;1.42;0.70;;;21.10;57.80;;;;;;6295911;28;20056;-68
2022/10/02 11:38:22;;;;;;;2.72;0.85;;;21.10;57.80;;;;;;6295526;28;20082;-67
2022/10/02 11:41:44;;;;;;;2.85;1.02;;;21.10;57.80;;;;;;6295888;28;20024;-67
2022/10/02 11:45:03;;;;;;;8.73;0.93;;;21.10;57.80;;;;;;6295629;28;20020;-68
2022/10/02 11:48:15;;;;;;;14.43;0.93;;;21.10;57.70;;;;;;6294715;28;20763;-68
2022/10/02 11:51:45;;;;;;;5.88;1.00;;;21.20;58.00;;;;;;6295797;28;20025;-67
2022/10/02 11:55:17;;;;;;;15.00;1.85;;;21.20;58.00;;;;;;6295365;28;20047;-67
2022/10/02 11:58:39;;;;;;;7.25;1.60;;;21.10;58.20;;;;;;6295587;28;20036;-67
2022/10/02 12:02:10;;;;;;;12.02;2.05;;;21.20;59.10;;;;;;6295511;28;20013;-68
2022/10/02 12:05:36;;;;;;;14.57;3.20;;;21.10;58.20;;;;;;6295352;28;20381;-68
2022/10/02 12:09:07;;;;;;;21.38;4.22;;;21.10;58.50;;;;;;6295068;28;20028;-67
2022/10/02 12:12:35;;;;;;;15.65;4.05;;;21.00;58.60;;;;;;6293759;28;20400;-68
2022/10/02 12:15:44;;;;;;;17.33;3.47;;;21.00;58.70;;;;;;6294638;28;20389;-68
2022/10/02 12:18:59;;;;;;;14.93;3.33;;;21.00;58.80;;;;;;6294660;28;20021;-68
2022/10/02 12:29:32;;;;;;;12.35;2.95;;;20.90;58.50;;;;;;6269993;28;20470;-69
2022/10/02 12:32:58;;;;;;;8.70;2.70;;;20.90;58.50;;;;;;6269919;28;20717;-69
2022/10/02 12:36:19;;;;;;;;;;;20.90;58.20;;;;;;6268517;28;20123;-65
2022/10/02 12:39:44;;;;;;;8.75;2.72;;;20.90;58.10;;;;;;6269410;28;19905;-67
2022/10/02 12:43:06;;;;;;;14.63;2.93;;;20.90;58.10;;;;;;6268541;28;20683;-68
2022/10/02 12:46:19;;;;;;;11.35;2.58;;;20.90;58.00;;;;;;6269613;28;20063;-67
2022/10/02 12:49:38;;;;;;;12.52;2.35;;;20.90;57.90;;;;;;6269231;28;20095;-67
2022/10/02 12:52:57;;;;;;;10.35;2.10;;;20.90;57.60;;;;;;6269515;28;20043;-66
2022/10/02 12:56:26;;;;;;;8.98;2.20;;;20.90;57.50;;;;;;6268220;28;20032;-67
2022/10/02 12:59:59;;;;;;;9.68;2.08;;;20.80;57.40;;;;;;6267414;28;20087;-67
2022/10/02 13:03:10;;;;;;;9.45;2.20;;;20.80;57.10;;;;;;6269012;28;20049;-68
2022/10/02 13:06:32;;;;;;;7.40;2.13;;;20.80;56.90;;;;;;6268753;28;20092;-68
2022/10/02 13:09:46;;;;;;;8.63;1.85;;;20.80;56.80;;;;;;6318133;28;20469;-74
2022/10/02 13:13:24;;;;;;;7.65;2.05;;;20.80;56.80;;;;;;6318901;28;20531;-68
2022/10/02 13:16:43;;;;;;;4.47;1.50;;;20.80;56.50;;;;;;6317227;28;20043;-68
2022/10/02 13:19:56;;;;;;;7.18;1.70;;;20.80;56.50;;;;;;6318621;28;20028;-68
2022/10/02 13:23:11;;;;;;;8.30;2.40;;;20.90;56.60;;;;;;6308992;28;20048;-68
2022/10/02 13:26:43;;;;;;;8.30;2.60;;;20.80;56.40;;;;;;6293101;28;20025;-68
2022/10/02 13:30:09;;;;;;;11.05;3.08;;;20.80;56.10;;;;;;6291020;28;20038;-67
2022/10/02 13:33:30;;;;;;;7.32;3.17;;;20.80;56.10;;;;;;6293427;28;20043;-66
2022/10/02 13:36:54;;;;;;;8.13;2.80;;;20.80;56.40;;;;;;6293094;28;20048;-68
2022/10/02 13:40:09;;;;;;;7.22;2.80;;;20.80;56.20;;;;;;6293078;28;20347;-67
2022/10/02 13:43:25;;;;;;;9.85;3.47;;;20.80;56.50;;;;;;6293076;28;20123;-68
2022/10/02 13:46:28;;;;;;;;;;;20.90;56.70;;;;;;6293228;28;20028;-67
2022/10/02 13:49:42;;;;;;;16.35;8.35;;;20.80;56.50;;;;;;6292627;28;19931;-66
2022/10/02 13:52:48;;;;;;;17.33;9.15;;;20.80;56.60;;;;;;6295964;28;20105;-67
2022/10/02 13:55:57;;;;;;;13.25;7.13;;;20.80;56.50;;;;;;6317871;28;20024;-67
2022/10/02 13:59:03;;;;;;;12.73;6.43;;;20.80;56.50;;;;;;6317280;28;20028;-67
2022/10/02 14:02:38;;;;;;;10.20;4.97;;;20.80;56.60;;;;;;6316483;28;20664;-66
2022/10/02 14:05:55;;;;;;;11.02;4.93;;;20.80;56.60;;;;;;6317979;28;20020;-65
2022/10/02 14:09:29;;;;;;;12.60;4.88;;;20.80;56.80;;;;;;6317693;28;20024;-68
2022/10/02 14:12:44;;;;;;;9.60;3.85;;;20.80;56.80;;;;;;6320465;28;20031;-68
2022/10/02 14:15:51;;;;;;;8.10;3.80;;;20.80;56.80;;;;;;6323157;28;20144;-68
2022/10/02 14:19:30;;;;;;;9.82;3.17;;;20.80;56.70;;;;;;6321223;28;20028;-68
2022/10/02 14:22:43;;;;;;;7.20;2.92;;;20.70;56.70;;;;;;6297610;28;20013;-67
2022/10/02 14:25:58;;;;;;;6.65;3.10;;;20.70;56.70;;;;;;6273266;28;20021;-68
2022/10/02 14:29:06;;;;;;;11.30;2.50;;;20.70;56.60;;;;;;6272459;28;20036;-65
2022/10/02 14:32:13;;;;;;;8.32;2.53;;;20.70;56.50;;;;;;6272568;28;20393;-68
2022/10/02 14:35:33;;;;;;;9.35;2.92;;;20.60;56.60;;;;;;6272706;28;20029;-68
2022/10/02 14:39:02;;;;;;;6.22;2.15;;;20.60;56.60;;;;;;6271971;28;20021;-69
2022/10/02 14:42:31;;;;;;;4.57;1.90;;;20.60;56.40;;;;;;6272137;28;20071;-68
2022/10/02 14:45:34;;;;;;;5.45;1.85;;;20.60;56.40;;;;;;6270838;28;20060;-66
2022/10/02 14:48:45;;;;;;;5.53;1.67;;;20.60;56.40;;;;;;6271768;28;20041;-68
2022/10/02 14:52:05;;;;;;;3.88;1.77;;;20.60;56.30;;;;;;6271933;28;20024;-69
2022/10/02 14:55:09;;;;;;;4.93;1.90;;;20.60;56.30;;;;;;6271794;28;20032;-67
2022/10/02 14:58:52;;;;;;;7.97;1.67;;;20.60;56.30;;;;;;6270318;28;20025;-68
2022/10/02 15:02:21;;;;;;;5.10;1.50;;;20.60;56.30;;;;;;6271307;28;20449;-67
2022/10/02 15:05:22;;;;;;;7.63;1.70;;;20.60;56.10;;;;;;6271212;28;20037;-68
2022/10/02 15:08:32;;;;;;;7.43;2.00;;;20.60;55.80;;;;;;6271372;28;20024;-67
2022/10/02 15:11:36;;;;;;;4.55;1.23;;;20.70;56.10;;;;;;6271682;28;20577;-68
2022/10/02 15:15:03;;;;;;;7.22;1.40;;;20.70;56.10;;;;;;6271450;28;20055;-68
2022/10/02 15:18:42;;;;;;;6.70;1.67;;;20.70;56.10;;;;;;6270795;28;20106;-68
2022/10/02 15:22:04;;;;;;;6.85;1.40;;;20.70;56.10;;;;;;6267515;28;20025;-67
2022/10/02 15:25:45;;;;;;;7.50;1.50;;;20.70;56.00;;;;;;6270215;28;20390;-67
2022/10/02 15:28:46;;;;;;;5.93;1.42;;;20.70;56.20;;;;;;6270760;28;20048;-67
2022/10/02 15:32:17;;;;;;;6.68;1.70;;;20.70;55.90;;;;;;6271611;28;20603;-67
2022/10/02 15:35:32;;;;;;;3.22;1.15;;;20.70;56.00;;;;;;6271324;28;20026;-68
2022/10/02 15:39:11;;;;;;;8.52;1.50;;;20.70;56.00;;;;;;6270642;28;20017;-68
2022/10/02 15:42:42;;;;;;;5.25;1.30;;;20.70;56.00;;;;;;6269189;28;20032;-67
2022/10/02 15:46:18;;;;;;;8.13;1.75;;;20.70;56.00;;;;;;6270517;28;20056;-68
2022/10/02 15:49:35;;;;;;;;;;;20.70;56.00;;;;;;6270055;28;20049;-68
2022/10/02 15:52:36;;;;;;;8.38;1.30;;;20.70;55.60;;;;;;6270653;28;19911;-68
2022/10/02 15:56:03;;;;;;;7.95;0.90;;;20.70;55.90;;;;;;6270746;28;20083;-68
2022/10/02 15:59:29;;;;;;;4.60;1.17;;;20.70;55.80;;;;;;6269408;28;20112;-67
2022/10/02 16:02:35;;;;;;;;;;;20.70;55.90;;;;;;6270844;28;20071;-69
2022/10/02 16:05:44;;;;;;;3.35;1.13;;;20.70;55.90;;;;;;6270528;28;19904;-68
2022/10/02 16:09:19;;;;;;;8.82;1.40;;;20.70;56.00;;;;;;6268273;28;20495;-69
2022/10/02 16:12:33;;;;;;;7.45;1.20;;;20.70;56.10;;;;;;6270468;28;20021;-67
2022/10/02 16:15:52;;;;;;;4.72;1.25;;;20.70;56.10;;;;;;6270162;28;20025;-68
2022/10/02 16:19:15;;;;;;;2.05;0.80;;;20.80;56.00;;;;;;6285643;28;20477;-67
2022/10/02 16:22:28;;;;;;;7.18;1.15;;;20.90;56.00;;;;;;6294661;28;20382;-67
2022/10/02 16:25:52;;;;;;;3.53;1.17;;;21.00;55.80;;;;;;6294067;28;20063;-69
2022/10/02 16:29:16;;;;;;;5.70;1.00;;;21.10;55.70;;;;;;6289527;28;20047;-69
2022/10/02 16:32:17;;;;;;;9.88;1.00;;;21.10;55.90;;;;;;6293389;28;20124;-69
2022/10/02 16:35:23;;;;;;;4.78;1.08;;;21.10;55.90;;;;;;6292968;28;20032;-68
2022/10/02 16:38:44;;;;;;;4.05;1.00;;;21.20;54.50;;;;;;6293777;28;20015;-67
2022/10/02 16:41:58;;;;;;;4.88;0.88;;;21.20;53.70;;;;;;6293312;28;20027;-69
2022/10/02 16:45:17;;;;;;;2.45;0.88;;;21.30;53.40;;;;;;6294554;28;20024;-69
2022/10/02 16:48:24;;;;;;;7.65;0.90;;;21.30;53.30;;;;;;6294027;28;20452;-70
2022/10/02 16:51:35;;;;;;;2.75;0.80;;;21.40;52.90;;;;;;6290175;28;20404;-69
2022/10/02 16:54:47;;;;;;;3.30;0.88;;;21.50;52.80;;;;;;6293291;28;20050;-70
2022/10/02 16:58:03;;;;;;;9.98;1.23;;;21.50;52.50;;;;;;6293841;28;20024;-70
2022/10/02 17:01:31;;;;;;;10.18;1.17;;;21.50;52.10;;;;;;6292309;28;20021;-67
2022/10/02 17:04:44;;;;;;;8.38;1.20;;;21.60;52.40;;;;;;6292383;28;20024;-68
2022/10/02 17:08:13;;;;;;;11.73;1.13;;;21.60;52.60;;;;;;6292203;28;20028;-70
2022/10/02 17:11:20;;;;;;;10.27;1.33;;;21.60;52.70;;;;;;6293501;28;20508;-69
2022/10/02 17:14:39;;;;;;;4.25;1.63;;;21.70;53.30;;;;;;6293315;28;20508;-70
2022/10/02 17:17:52;;;;;;;3.88;0.90;;;21.70;52.70;;;;;;6292992;28;20070;-68